SALOXN 161650Z 01004KT 10KM FEW030SC SCT100AC BKN300CI M02/M04 Q1017 RMK BKN